El Aayoune, Western Sahara

4:26 AM WET on July 31, 2014 (GMT +0000)
Hassan I (GMML) Elev 207 ft | 27.14 °N, 13.23 °W | Change Station

Current weather conditions updated 11 minutes ago

Partly Cloudy
Partly Cloudy
66 °F
Feels Like 66 °F
N
13
Wind Variable Wind from NNE

Today is forecast to be nearly the same temperature as yesterday.

Today
High -- | Low -- °F
--% Chance of Precip.
Yesterday
High -- | Low -- °F
Precip. -- in
6:16 AM 7:41 PM
Waxing Crescent, 15% visible
Pressure 30.01 in
Visibility 6.2 miles
Clouds Few 1400 ft
Dew Point 63 °F
Humidity 88%
Rainfall 0.00 in
Snow Depth Not available.
UV 0 out of 12
Pollen Not available.
Air Quality Not available.
Flu Activity Not available.
METAR GMML 310415Z AUTO 03011KT 9999NDV FEW014 19/17 Q1016

More Conditions Fewer Conditions

Pressure 30.01 in
Visibility 6.2 miles
Clouds Few 1400 ft
Dew Point 63 °F
Humidity 88%
Rainfall 0.00 in
Snow Depth Not available.
UV 0 out of 12
Pollen Not available.
Air Quality Not available.
Flu Activity Not available.
METAR GMML 310415Z AUTO 03011KT 9999NDV FEW014 19/17 Q1016

More Conditions Fewer Conditions

10-Day Weather Forecast

Almanac

Astronomy

Jul. 31, 2014 Rise Set
Actual Time 6:16 AM WET 7:41 PM WET
Civil Twilight 5:51 AM WET 8:07 PM WET
Nautical Twilight 5:21 AM WET 8:37 PM WET
Astronomical Twilight 4:49 AM WET 9:08 PM WET
Moon 10:04 AM WET 10:17 PM WET
Length of Visible Light 14h 15m
Length of Day
13h 25m
Tomorrow will be 1m 11s shorter.
Waxing Crescent, 15% of the Moon is Illuminated
Today
Waxing Crescent
Aug 3
First Quarter
Aug 10
Full
Aug 17
Last Quarter
Aug 25
New

Yesterday's Extremes

Country Highs Country Lows

Community

WunderPhotos

Upload Photos

1,739,238 photos uploaded!

Nearby

Snow Depth

Not available.

Earthquake Activity

City Distance Mag. Time & Date
No recent earthquake activity has been reported nearby.
Minimum magnitude displayed is 2.5.

Coastal Water Temperatures

Place Temperature
No Stations Reporting

Nearby Weather Stations

There are no personal weather stations in this area.